Time;durP1;ratioP1;P1;durP2;ratioP2;P2;SDS_P1;SDS_P2;PMS_P1;PMS_P2;Temp;Humidity;BMP_temperature;BMP_pressure;BME280_temperature;BME280_humidity;BME280_pressure;Samples;Min_cycle;Max_cycle;Signal;HPM_P1;HPM_P2
2022/06/15 00:01:22;;;;;;;7.28;3.63;;;15.60;1.00;16.50;94291.00;;;;7386552;19;20145;-79
2022/06/15 00:03:57;;;;;;;5.55;3.28;;;15.70;1.00;16.50;94290.00;;;;7396564;19;20596;-79
2022/06/15 00:06:34;;;;;;;7.38;3.45;;;15.70;1.00;16.60;94292.00;;;;7392302;19;20207;-79
2022/06/15 00:09:21;;;;;;;6.30;3.70;;;15.70;1.00;16.80;94298.00;;;;7393833;19;20154;-79
2022/06/15 00:11:48;;;;;;;5.50;3.25;;;15.80;1.00;16.80;94284.00;;;;7394768;19;20588;-78
2022/06/15 00:14:27;;;;;;;7.70;3.38;;;15.90;1.00;16.90;94275.00;;;;7395781;19;20132;-81
2022/06/15 00:16:55;;;;;;;3.92;2.90;;;16.00;1.00;16.90;94288.00;;;;7394365;19;20132;-81
2022/06/15 00:19:22;;;;;;;5.22;3.20;;;16.00;1.00;16.90;94269.00;;;;7396592;19;20149;-80
2022/06/15 00:21:55;;;;;;;5.05;3.15;;;16.10;1.00;16.90;94274.00;;;;7394301;19;20144;-79
2022/06/15 00:24:23;;;;;;;6.80;3.28;;;16.10;1.00;16.80;94273.00;;;;7393343;19;20153;-80
2022/06/15 00:26:50;;;;;;;6.05;3.05;;;16.10;1.00;16.80;94270.00;;;;7393939;19;20149;-79
2022/06/15 00:29:24;;;;;;;7.30;3.30;;;16.00;1.00;16.80;94264.00;;;;7394976;19;20614;-80
2022/06/15 00:31:51;;;;;;;4.10;2.83;;;16.00;1.00;16.70;94258.00;;;;7393181;19;20136;-79
2022/06/15 00:34:21;;;;;;;5.43;3.08;;;16.00;1.00;16.80;94259.00;;;;7395458;19;20125;-80
2022/06/15 00:36:55;;;;;;;3.42;2.92;;;15.90;1.00;16.70;94238.00;;;;7394484;19;20120;-81
2022/06/15 00:39:22;;;;;;;4.07;2.80;;;15.90;1.00;16.60;94247.00;;;;7394481;19;20182;-80
2022/06/15 00:41:49;;;;;;;5.18;2.55;;;15.90;1.00;16.70;94248.00;;;;7393408;19;20154;-80
2022/06/15 00:44:26;;;;;;;5.15;2.80;;;15.90;1.00;16.60;94271.00;;;;7393820;19;20145;-80
2022/06/15 00:46:59;;;;;;;8.45;2.85;;;15.90;1.00;16.60;94262.00;;;;7392284;19;20156;-82
2022/06/15 00:49:41;;;;;;;8.77;2.85;;;15.90;1.00;16.80;94248.00;;;;7393946;19;20137;-79
2022/06/15 00:52:17;;;;;;;8.38;2.90;;;15.90;1.00;16.70;94221.00;;;;7394769;19;20196;-81
2022/06/15 00:54:50;;;;;;;5.13;3.28;;;16.00;1.00;16.70;94257.00;;;;7389089;19;20612;-81
2022/06/15 00:57:18;;;;;;;5.60;2.95;;;16.00;1.00;16.70;94227.00;;;;7391637;19;20174;-81
2022/06/15 00:59:56;;;;;;;4.82;2.70;;;15.90;1.00;16.60;94255.00;;;;7394271;19;20200;-78
2022/06/15 01:02:36;;;;;;;5.90;2.80;;;15.90;1.00;16.60;94239.00;;;;7392771;19;20140;-79
2022/06/15 01:05:12;;;;;;;8.93;3.10;;;15.90;1.00;16.50;94240.00;;;;7392711;19;20158;-81
2022/06/15 01:08:29;;;;;;;7.45;3.20;;;15.80;1.00;16.50;94240.00;;;;7390276;19;20168;-79
2022/06/15 01:11:40;;;;;;;3.67;2.58;;;15.80;1.00;16.30;94230.00;;;;7393500;19;20146;-80
2022/06/15 01:14:38;;;;;;;5.00;2.78;;;15.70;1.00;16.30;94248.00;;;;7389040;19;20160;-80
2022/06/15 01:17:37;;;;;;;8.20;2.83;;;15.60;1.00;16.10;94251.00;;;;7391732;19;20145;-79
2022/06/15 01:20:46;;;;;;;4.28;2.90;;;15.50;1.00;16.10;94253.00;;;;7391598;19;20939;-79
2022/06/15 01:24:05;;;;;;;4.88;2.90;;;15.40;1.00;16.10;94246.00;;;;7389814;19;20147;-79
2022/06/15 01:27:10;;;;;;;5.72;2.90;;;15.30;1.00;15.90;94248.00;;;;7393161;19;20174;-80
2022/06/15 01:30:18;;;;;;;8.45;3.03;;;15.30;1.00;15.90;94254.00;;;;7392484;19;20608;-78
2022/06/15 01:33:12;;;;;;;4.03;2.45;;;15.20;1.00;15.90;94250.00;;;;7394505;19;20146;-81
2022/06/15 01:36:01;;;;;;;6.40;2.92;;;15.20;1.00;15.80;94246.00;;;;7391959;19;20195;-80
2022/06/15 01:38:43;;;;;;;4.55;2.83;;;15.10;1.00;15.90;94236.00;;;;7392666;19;20149;-80
2022/06/15 01:41:33;;;;;;;4.65;2.70;;;15.10;1.00;15.90;94243.00;;;;7391188;19;20140;-78
2022/06/15 01:44:24;;;;;;;6.07;3.17;;;15.10;1.00;16.00;94220.00;;;;7391249;19;20161;-80
2022/06/15 01:46:53;;;;;;;6.22;3.03;;;15.20;1.00;16.00;94236.00;;;;7391641;19;20137;-79
2022/06/15 01:49:34;;;;;;;5.35;3.30;;;15.20;1.00;16.00;94238.00;;;;7392029;19;20584;-81
2022/06/15 01:52:07;;;;;;;4.32;2.70;;;15.20;1.00;16.00;94207.00;;;;7391440;19;20641;-80
2022/06/15 01:54:57;;;;;;;4.38;3.00;;;15.20;1.00;16.10;94232.00;;;;7390599;19;20141;-80
2022/06/15 01:57:28;;;;;;;5.53;3.15;;;15.20;1.00;16.00;94228.00;;;;7391375;19;20170;-77
2022/06/15 02:00:16;;;;;;;5.38;2.75;;;15.20;1.00;16.00;94221.00;;;;7391721;19;20164;-80
2022/06/15 02:03:12;;;;;;;7.53;2.83;;;15.20;1.00;15.90;94239.00;;;;7390172;19;20833;-80
2022/06/15 02:06:23;;;;;;;4.63;2.72;;;15.20;1.00;15.80;94235.00;;;;7391389;19;20638;-79
2022/06/15 02:09:04;;;;;;;4.28;2.90;;;15.10;1.00;15.90;94220.00;;;;7390912;19;20140;-80
2022/06/15 02:11:42;;;;;;;6.43;2.90;;;15.20;1.00;15.90;94223.00;;;;7390859;19;20148;-80
2022/06/15 02:14:21;;;;;;;4.82;3.03;;;15.10;1.00;16.00;94215.00;;;;7389929;19;20144;-80
2022/06/15 02:17:07;;;;;;;5.15;2.60;;;15.10;1.00;15.90;94209.00;;;;7393275;19;20196;-79
2022/06/15 02:19:43;;;;;;;4.78;2.70;;;15.10;1.00;16.10;94205.00;;;;7391793;19;20147;-79
2022/06/15 02:22:23;;;;;;;4.70;2.88;;;15.20;1.00;16.30;94191.00;;;;7387803;19;20137;-81
2022/06/15 02:24:57;;;;;;;6.53;2.70;;;15.20;1.00;16.20;94183.00;;;;7389987;19;20125;-81
2022/06/15 02:27:33;;;;;;;4.60;2.80;;;15.30;1.00;16.30;94176.00;;;;7392087;19;20153;-79
2022/06/15 02:30:12;;;;;;;4.15;2.90;;;15.30;1.00;16.30;94178.00;;;;7390612;19;20610;-78
2022/06/15 02:32:48;;;;;;;3.13;2.75;;;15.40;1.00;16.30;94209.00;;;;7390271;19;20200;-80
2022/06/15 02:35:20;;;;;;;5.57;2.80;;;15.40;1.00;16.20;94207.00;;;;7389997;19;20128;-79
2022/06/15 02:37:55;;;;;;;4.80;2.90;;;15.40;1.00;16.10;94193.00;;;;7390083;19;20162;-80
2022/06/15 02:40:23;;;;;;;7.30;2.88;;;15.40;1.00;16.10;94192.00;;;;7391914;19;20638;-79
2022/06/15 02:42:51;;;;;;;3.70;2.30;;;15.30;1.00;16.20;94200.00;;;;7385527;19;20145;-79
2022/06/15 02:45:31;;;;;;;4.07;2.65;;;15.30;1.00;16.00;94190.00;;;;7395050;19;20605;-79
2022/06/15 02:47:58;;;;;;;4.43;2.55;;;15.30;1.00;16.00;94181.00;;;;7393786;19;20128;-80
2022/06/15 02:50:41;;;;;;;5.13;2.83;;;15.30;1.00;15.90;94214.00;;;;7392353;19;20146;-79
2022/06/15 02:53:14;;;;;;;4.03;2.65;;;15.30;1.00;16.00;94211.00;;;;7390232;19;20160;-79
2022/06/15 02:55:50;;;;;;;6.10;3.05;;;15.20;1.00;16.00;94201.00;;;;7390326;19;20140;-78
2022/06/15 02:58:37;;;;;;;5.47;2.95;;;15.20;1.00;16.00;94191.00;;;;7388873;19;20137;-80
2022/06/15 03:01:11;;;;;;;3.83;2.72;;;15.20;1.00;16.00;94209.00;;;;7388476;19;20620;-81
2022/06/15 03:03:39;;;;;;;3.63;2.70;;;15.20;1.00;16.40;94210.00;;;;7390982;19;20585;-78
2022/06/15 03:06:13;;;;;;;4.78;2.95;;;15.30;1.00;16.40;94204.00;;;;7387820;19;20143;-80
2022/06/15 03:08:53;;;;;;;4.40;2.60;;;15.40;1.00;16.40;94190.00;;;;7388934;19;20148;-79
2022/06/15 03:11:24;;;;;;;4.90;2.78;;;15.40;1.00;16.30;94185.00;;;;7389790;19;20140;-79
2022/06/15 03:13:59;;;;;;;6.10;2.67;;;15.50;1.00;16.30;94171.00;;;;7389860;19;20139;-80
2022/06/15 03:16:27;;;;;;;3.40;2.80;;;15.50;1.00;16.20;94179.00;;;;7391126;19;20526;-80
2022/06/15 03:18:55;;;;;;;7.15;2.90;;;15.50;1.00;16.30;94184.00;;;;7390006;19;20494;-80
2022/06/15 03:21:28;;;;;;;4.95;2.70;;;15.40;1.00;16.20;94165.00;;;;7389836;19;20533;-80
2022/06/15 03:23:55;;;;;;;5.25;2.80;;;15.40;1.00;16.20;94178.00;;;;7385412;19;20573;-79
2022/06/15 03:26:23;;;;;;;9.43;2.60;;;15.40;1.00;16.20;94173.00;;;;7390847;19;20608;-80
2022/06/15 03:28:56;;;;;;;5.80;2.80;;;15.40;1.00;16.20;94173.00;;;;7392909;19;20613;-80
2022/06/15 03:31:26;;;;;;;3.13;2.60;;;15.40;1.00;16.40;94181.00;;;;7388893;19;20170;-81
2022/06/15 03:33:54;;;;;;;3.35;2.55;;;15.40;1.00;16.30;94182.00;;;;7390952;19;20121;-79
2022/06/15 03:36:27;;;;;;;4.25;2.90;;;15.40;1.00;16.30;94201.00;;;;7388981;19;20130;-79
2022/06/15 03:38:57;;;;;;;6.25;3.20;;;15.50;1.00;16.50;94181.00;;;;7394920;19;20161;-81
2022/06/15 03:41:24;;;;;;;4.57;2.53;;;15.50;1.00;16.30;94202.00;;;;7400194;19;20186;-79
2022/06/15 03:43:58;;;;;;;5.18;2.47;;;15.50;1.00;16.40;94183.00;;;;7392732;19;20621;-81
2022/06/15 03:46:25;;;;;;;6.25;2.47;;;15.50;1.00;16.30;94179.00;;;;7397939;19;20140;-80
2022/06/15 03:48:53;;;;;;;4.53;2.50;;;15.50;1.00;16.40;94196.00;;;;7396618;19;20133;-79
2022/06/15 03:51:26;;;;;;;4.65;3.13;;;15.50;1.00;16.50;94182.00;;;;7399321;19;20160;-79
2022/06/15 03:53:53;;;;;;;4.85;2.60;;;15.50;1.00;16.40;94183.00;;;;7394809;19;20141;-79
2022/06/15 03:56:21;;;;;;;6.55;2.97;;;15.50;1.00;16.40;94169.00;;;;7395974;19;20149;-78
2022/06/15 03:58:55;;;;;;;5.75;2.80;;;15.50;1.00;16.30;94184.00;;;;7395220;19;20618;-79
2022/06/15 04:01:22;;;;;;;5.43;2.80;;;15.40;1.00;16.40;94183.00;;;;7397644;19;20611;-79
2022/06/15 04:03:50;;;;;;;4.70;2.78;;;15.40;1.00;16.10;94190.00;;;;7393274;19;20245;-78
2022/06/15 04:06:30;;;;;;;8.50;2.70;;;15.40;1.00;16.20;94184.00;;;;7392689;19;20933;-80
2022/06/15 04:08:57;;;;;;;6.13;3.03;;;15.40;1.00;16.10;94179.00;;;;7394409;19;20137;-81
2022/06/15 04:14:17;;;;;;;6.28;2.80;;;15.30;1.00;16.10;94200.00;;;;7395304;19;20300;-80
2022/06/15 04:16:53;;;;;;;6.57;2.65;;;15.30;1.00;16.20;94199.00;;;;7396919;19;20509;-81
2022/06/15 04:19:33;;;;;;;6.50;2.67;;;15.30;1.00;16.20;94206.00;;;;7395252;19;20878;-81
2022/06/15 04:22:06;;;;;;;8.02;2.97;;;15.30;1.00;16.30;94182.00;;;;7396258;19;20180;-78
2022/06/15 04:24:33;;;;;;;6.03;3.00;;;15.30;1.00;16.20;94190.00;;;;7391947;19;20137;-81
2022/06/15 04:27:00;;;;;;;4.55;2.70;;;15.30;1.00;16.00;94197.00;;;;7396908;19;20971;-79
2022/06/15 04:29:35;;;;;;;6.55;2.50;;;15.30;1.00;16.00;94187.00;;;;7396586;19;20124;-78
2022/06/15 04:32:02;;;;;;;3.58;2.45;;;15.20;1.00;15.90;94198.00;;;;7395077;19;20507;-82
2022/06/15 04:34:29;;;;;;;5.45;2.75;;;15.10;1.00;16.00;94184.00;;;;7393743;19;20154;-80
2022/06/15 04:37:03;;;;;;;7.07;2.97;;;15.10;1.00;16.10;94196.00;;;;7397907;19;20159;-80
2022/06/15 04:39:31;;;;;;;4.53;2.72;;;15.10;1.00;16.10;94207.00;;;;7392951;19;20204;-81
2022/06/15 04:41:58;;;;;;;3.38;2.63;;;15.20;1.00;16.30;94191.00;;;;7395614;19;20158;-79
2022/06/15 04:44:32;;;;;;;7.18;2.78;;;15.20;1.00;16.40;94180.00;;;;7394127;19;20153;-78
2022/06/15 04:47:01;;;;;;;6.63;2.72;;;15.30;1.00;16.50;94202.00;;;;7393195;19;20715;-79
2022/06/15 04:49:28;;;;;;;6.88;2.53;;;15.30;1.00;16.60;94197.00;;;;7396770;19;20636;-80
2022/06/15 04:52:01;;;;;;;6.15;2.80;;;15.40;1.00;16.80;94188.00;;;;7396706;19;20137;-78
2022/06/15 04:54:28;;;;;;;4.28;2.42;;;15.60;1.00;17.00;94202.00;;;;7396298;19;20646;-80
2022/06/15 04:56:56;;;;;;;5.38;2.92;;;15.70;1.00;17.00;94198.00;;;;7393720;19;20615;-80
2022/06/15 04:59:29;;;;;;;6.18;2.80;;;15.80;1.00;17.20;94190.00;;;;7397889;19;20814;-79
2022/06/15 05:01:58;;;;;;;7.68;2.78;;;16.00;1.00;17.60;94206.00;;;;7394688;19;20157;-79
2022/06/15 05:04:26;;;;;;;3.83;2.40;;;16.20;1.00;17.80;94200.00;;;;7392818;19;20551;-79
2022/06/15 05:07:07;;;;;;;4.50;2.60;;;16.40;1.00;18.10;94172.00;;;;7391387;19;20164;-80
2022/06/15 05:09:41;;;;;;;5.88;2.60;;;16.70;1.00;18.60;94170.00;;;;7392887;19;20149;-81
2022/06/15 05:12:14;;;;;;;4.65;2.40;;;17.00;1.00;18.80;94182.00;;;;7391867;19;20141;-79
2022/06/15 05:14:42;;;;;;;4.35;2.60;;;17.40;1.00;19.00;94183.00;;;;7392769;19;20121;-79
2022/06/15 05:17:09;;;;;;;4.03;2.60;;;17.60;1.00;19.10;94169.00;;;;7392145;19;20140;-78
2022/06/15 05:19:42;;;;;;;2.70;2.25;;;17.90;1.00;19.20;94187.00;;;;7396433;19;20177;-81
2022/06/15 05:22:10;;;;;;;7.30;2.53;;;18.10;1.00;19.20;94193.00;;;;7389610;19;21019;-81
2022/06/15 05:24:38;;;;;;;3.15;2.28;;;18.20;99.90;19.30;94171.00;;;;7392623;19;20161;-79
2022/06/15 05:27:11;;;;;;;3.83;2.72;;;18.40;99.90;19.50;94185.00;;;;7396783;19;20148;-80
2022/06/15 05:29:39;;;;;;;4.55;2.42;;;18.60;1.00;19.80;94195.00;;;;7395204;19;20619;-80
2022/06/15 05:32:08;;;;;;;2.80;2.30;;;18.80;99.90;19.90;94178.00;;;;7392302;19;20565;-78
2022/06/15 05:34:41;;;;;;;5.45;2.60;;;18.90;99.90;20.10;94185.00;;;;7394431;19;20159;-79
2022/06/15 05:37:08;;;;;;;4.50;2.40;;;19.10;99.90;20.30;94188.00;;;;7391101;19;20149;-79
2022/06/15 05:39:36;;;;;;;2.83;2.38;;;19.20;99.90;20.40;94185.00;;;;7387523;19;22228;-79
2022/06/15 05:42:09;;;;;;;3.20;2.15;;;19.40;99.90;20.50;94198.00;;;;7391644;19;20418;-78
2022/06/15 05:44:51;;;;;;;4.40;2.83;;;19.60;99.90;20.60;94173.00;;;;7389129;19;20163;-80
2022/06/15 05:47:24;;;;;;;4.38;2.42;;;19.80;99.90;20.80;94183.00;;;;7394252;19;20501;-81
2022/06/15 05:49:52;;;;;;;5.95;2.45;;;20.00;99.90;21.00;94178.00;;;;7394819;19;20145;-79
2022/06/15 05:52:20;;;;;;;6.90;2.47;;;20.00;99.90;21.10;94204.00;;;;7393154;19;20520;-80
2022/06/15 05:54:56;;;;;;;4.93;2.88;;;20.20;99.90;21.30;94193.00;;;;7394205;19;20816;-80
2022/06/15 05:57:26;;;;;;;3.40;2.20;;;20.20;99.90;21.30;94199.00;;;;7390327;19;20141;-79
2022/06/15 05:59:56;;;;;;;3.38;2.30;;;20.30;99.90;21.50;94185.00;;;;7393916;19;20156;-80
2022/06/15 06:02:30;;;;;;;3.25;2.33;;;20.40;99.90;21.60;94206.00;;;;7391640;19;20148;-78
2022/06/15 06:04:59;;;;;;;3.60;2.45;;;20.60;99.90;21.70;94198.00;;;;7391118;19;20615;-79
2022/06/15 06:07:27;;;;;;;6.43;2.70;;;20.70;99.90;21.80;94189.00;;;;7392045;19;20604;-79
2022/06/15 06:10:01;;;;;;;4.55;2.67;;;20.80;99.90;22.00;94188.00;;;;7391593;19;20156;-80
2022/06/15 06:12:28;;;;;;;5.53;2.33;;;20.90;99.90;22.00;94191.00;;;;7394319;19;20491;-78
2022/06/15 06:14:56;;;;;;;5.22;2.75;;;20.90;99.90;22.00;94191.00;;;;7396524;19;20125;-80
2022/06/15 06:17:30;;;;;;;4.82;2.90;;;21.00;99.90;22.10;94195.00;;;;7392962;19;20617;-78
2022/06/15 06:19:57;;;;;;;2.30;2.10;;;21.10;99.90;22.30;94173.00;;;;7390236;19;20607;-79
2022/06/15 06:22:24;;;;;;;5.38;2.10;;;21.20;99.90;22.50;94180.00;;;;7392188;19;20148;-81
2022/06/15 06:24:58;;;;;;;3.53;2.60;;;21.40;99.90;22.50;94188.00;;;;7392631;19;20655;-78
2022/06/15 06:27:25;;;;;;;5.25;2.55;;;21.60;99.90;22.70;94197.00;;;;7390218;19;20167;-77
2022/06/15 06:29:58;;;;;;;3.67;2.70;;;21.80;99.90;22.80;94188.00;;;;7389589;19;20125;-80
2022/06/15 06:32:32;;;;;;;6.53;2.30;;;21.90;99.90;22.70;94200.00;;;;7391031;19;20163;-79
2022/06/15 06:35:01;;;;;;;3.50;2.22;;;22.10;99.90;23.00;94183.00;;;;7393436;19;20473;-80
2022/06/15 06:37:34;;;;;;;3.03;2.38;;;22.20;99.90;23.10;94184.00;;;;7392594;19;20133;-80
2022/06/15 06:40:16;;;;;;;4.05;2.30;;;22.30;99.90;23.20;94203.00;;;;7392881;19;20473;-78
2022/06/15 06:42:43;;;;;;;4.85;2.45;;;22.40;99.90;23.10;94198.00;;;;7392242;19;20133;-79
2022/06/15 06:45:16;;;;;;;5.82;2.90;;;22.50;99.90;23.30;94196.00;;;;7394020;19;20177;-79
2022/06/15 06:47:50;;;;;;;6.00;2.78;;;22.70;99.90;23.60;94197.00;;;;7389137;19;20137;-81
2022/06/15 06:50:28;;;;;;;4.57;2.10;;;22.90;99.90;23.80;94212.00;;;;7389675;19;20144;-80
2022/06/15 06:52:55;;;;;;;2.67;1.88;;;23.10;99.90;24.00;94208.00;;;;7391937;19;20132;-79
2022/06/15 06:55:26;;;;;;;5.22;2.40;;;23.20;99.90;24.00;94207.00;;;;7393559;19;20137;-80
2022/06/15 06:58:01;;;;;;;4.03;2.00;;;23.30;99.90;23.90;94206.00;;;;7388414;19;20144;-80
2022/06/15 07:00:31;;;;;;;5.45;1.60;;;23.40;99.90;24.20;94220.00;;;;7390210;19;20631;-81
2022/06/15 07:03:01;;;;;;;3.10;2.13;;;23.60;99.90;24.20;94208.00;;;;7391441;19;20163;-78
2022/06/15 07:05:36;;;;;;;6.55;1.92;;;23.60;99.90;24.00;94214.00;;;;7388827;19;20152;-78
2022/06/15 07:08:10;;;;;;;2.85;2.15;;;23.80;99.90;24.50;94194.00;;;;7390583;19;20176;-80
2022/06/15 07:10:44;;;;;;;3.05;2.05;;;23.90;99.90;24.90;94192.00;;;;7391038;19;20159;-81
2022/06/15 07:13:12;;;;;;;5.35;1.90;;;24.10;99.90;25.00;94187.00;;;;7396103;19;20494;-80
2022/06/15 07:15:39;;;;;;;3.03;1.95;;;24.30;99.90;25.30;94201.00;;;;7397492;19;20158;-81
2022/06/15 07:18:14;;;;;;;2.63;1.90;;;24.40;99.90;25.50;94207.00;;;;7397749;19;20121;-79
2022/06/15 07:20:41;;;;;;;5.47;2.40;;;24.50;99.90;25.60;94204.00;;;;7398122;19;20189;-80
2022/06/15 07:23:08;;;;;;;4.15;2.70;;;24.70;99.90;25.50;94223.00;;;;7396706;19;20136;-80
2022/06/15 07:25:41;;;;;;;8.90;3.50;;;24.80;99.90;25.50;94234.00;;;;7396863;19;20151;-80
2022/06/15 07:28:09;;;;;;;5.40;2.85;;;24.80;99.90;25.50;94211.00;;;;7399438;19;20449;-79
2022/06/15 07:31:08;;;;;;;9.27;3.75;;;24.90;99.90;25.50;94231.00;;;;7399405;19;20548;-80
2022/06/15 07:33:42;;;;;;;3.50;2.75;;;25.00;99.90;25.40;94249.00;;;;7401615;19;20152;-78
2022/06/15 07:36:17;;;;;;;3.85;2.80;;;;;25.40;94245.00;;;;7395469;19;20129;-80
2022/06/15 07:38:56;;;;;;;6.28;3.22;;;;;25.40;94243.00;;;;7396451;19;20137;-80
2022/06/15 07:41:27;;;;;;;5.95;3.20;;;;;25.50;94253.00;;;;7398979;19;20148;-81
2022/06/15 07:44:02;;;;;;;3.92;3.00;;;;;25.20;94251.00;;;;7398046;19;20140;-81
2022/06/15 07:46:30;;;;;;;5.13;2.63;;;;;25.60;94258.00;;;;7398057;19;20469;-80
2022/06/15 07:51:59;;;;;;;5.95;3.05;;;;;25.70;94252.00;;;;7396506;19;20187;-80
2022/06/15 07:54:28;;;;;;;2.60;2.33;;;;;25.50;94253.00;;;;7398267;19;20153;-80
2022/06/15 07:57:02;;;;;;;3.00;2.45;;;;;25.80;94250.00;;;;7397957;19;20136;-81
2022/06/15 07:59:29;;;;;;;3.28;2.70;;;;;26.00;94251.00;;;;7395134;19;20148;-80
2022/06/15 08:01:57;;;;;;;3.13;1.98;;;;;25.90;94252.00;;;;7394125;19;20164;-81
2022/06/15 08:04:31;;;;;;;3.40;2.20;;;;;25.90;94251.00;;;;7396723;19;20486;-79
2022/06/15 08:07:14;;;;;;;4.50;2.42;;;;;26.10;94251.00;;;;7396719;19;20628;-82
2022/06/15 08:09:50;;;;;;;2.67;2.22;;;;;26.10;94250.00;;;;7396171;19;20641;-82
2022/06/15 08:12:23;;;;;;;2.53;2.20;;;;;26.30;94255.00;;;;7393898;19;20610;-79
2022/06/15 08:15:00;;;;;;;5.22;2.22;;;;;26.40;94249.00;;;;7397590;19;20228;-80
2022/06/15 08:17:29;;;;;;;4.63;2.28;;;;;26.30;94250.00;;;;7398007;19;20800;-79
2022/06/15 08:20:06;;;;;;;4.55;2.13;;;;;26.40;94247.00;;;;7395022;19;20162;-81
2022/06/15 08:22:46;;;;;;;2.45;2.25;;;;;26.50;94246.00;;;;7393480;19;20141;-80
2022/06/15 08:25:18;;;;;;;4.93;2.40;;;;;26.80;94251.00;;;;7396714;19;20128;-81
2022/06/15 08:27:54;;;;;;;4.18;2.67;;;;;26.80;94244.00;;;;7395672;19;20581;-77
2022/06/15 08:30:27;;;;;;;5.30;2.50;;;;;27.40;94248.00;;;;7396406;19;20610;-79
2022/06/15 08:33:06;;;;;;;3.47;2.55;;;;;27.00;94242.00;;;;7395457;19;20147;-82
2022/06/15 08:35:36;;;;;;;4.90;2.33;;;;;27.30;94244.00;;;;7398336;19;20129;-80
2022/06/15 08:38:15;;;;;;;4.00;2.20;;;;;27.50;94252.00;;;;7395620;19;20128;-79
2022/06/15 08:40:54;;;;;;;3.47;2.00;;;;;27.70;94246.00;;;;7394710;19;20137;-81
2022/06/15 08:43:50;;;;;;;2.78;1.92;;;;;27.20;94257.00;;;;7397641;19;20168;-79
2022/06/15 08:46:52;;;;;;;4.60;2.00;;;;;27.10;94252.00;;;;7394195;19;20137;-77
2022/06/15 08:49:45;;;;;;;4.75;2.38;;;;;27.70;94247.00;;;;7397270;19;20160;-80
2022/06/15 08:52:30;;;;;;;3.17;2.05;;;;;27.40;94256.00;;;;7396903;19;20129;-78
2022/06/15 08:55:29;;;;;;;3.10;2.00;;;;;27.10;94255.00;;;;7393660;19;20516;-79
2022/06/15 08:58:02;;;;;;;4.13;2.22;;;;;26.70;94251.00;;;;7392353;19;20588;-80
2022/06/15 09:00:40;;;;;;;2.25;1.95;;;;;27.00;94264.00;;;;7390935;19;20160;-79
2022/06/15 09:03:11;;;;;;;3.15;2.05;;;;;26.60;94265.00;;;;7399083;19;20208;-79
2022/06/15 09:06:19;;;;;;;3.78;2.65;;;;;26.70;94266.00;;;;7390924;19;20140;-78
2022/06/15 09:09:01;;;;;;;3.17;2.33;;;;;27.40;94265.00;;;;7390663;19;20167;-81
2022/06/15 09:12:49;;;;;;;4.22;2.60;;;;;27.90;94270.00;;;;7393792;19;20148;-79
2022/06/15 09:14:58;;;;;;;3.15;2.30;;;;;28.20;94273.00;;;;7394261;19;20145;-79
2022/06/15 09:17:33;;;;;;;3.67;2.40;;;;;27.60;94267.00;;;;7392501;19;20146;-79
2022/06/15 09:20:05;;;;;;;2.97;2.20;;;;;27.40;94267.00;;;;7393681;19;20176;-79
2022/06/15 09:22:48;;;;;;;3.20;2.25;;;;;27.50;94269.00;;;;7394388;19;20500;-78
2022/06/15 09:25:22;;;;;;;4.68;2.05;;;;;27.50;94275.00;;;;7393395;19;20160;-82
2022/06/15 09:28:06;;;;;;;2.83;2.22;;;;;27.60;94267.00;;;;7394596;19;20129;-79
2022/06/15 09:30:38;;;;;;;5.05;2.40;;;;;27.40;94280.00;;;;7393113;19;20530;-79
2022/06/15 09:33:20;;;;;;;3.85;2.47;;;;;27.50;94279.00;;;;7393316;19;20200;-80
2022/06/15 09:35:52;;;;;;;3.10;2.28;;;;;27.30;94278.00;;;;7392882;19;20128;-83
2022/06/15 09:38:28;;;;;;;3.92;2.33;;;;;27.90;94278.00;;;;7391337;19;20490;-80
2022/06/15 09:41:10;;;;;;;2.97;2.40;;;;;27.80;94279.00;;;;7394877;19;20149;-78
2022/06/15 09:44:13;;;;;;;4.45;2.30;;;;;27.60;94278.00;;;;7396335;19;20125;-80
2022/06/15 09:47:07;;;;;;;3.05;2.05;;;;;28.00;94272.00;;;;7396653;19;20193;-79
2022/06/15 09:50:02;;;;;;;2.45;2.00;;;;;28.60;94270.00;;;;7394045;19;20533;-80
2022/06/15 09:53:21;;;;;;;2.92;2.50;;;;;28.20;94270.00;;;;7394456;19;20133;-80
2022/06/15 09:56:01;;;;;;;4.28;2.47;;;;;28.60;94268.00;;;;7392075;19;20638;-79
2022/06/15 09:59:08;;;;;;;3.92;2.70;;;;;28.70;94275.00;;;;7392351;19;20121;-78
2022/06/15 10:01:45;;;;;;;8.60;2.78;;;;;29.30;94279.00;;;;7390562;19;20611;-76
2022/06/15 10:04:35;;;;;;;3.90;2.72;;;;;28.70;94284.00;;;;7394311;19;20163;-79
2022/06/15 10:07:38;;;;;;;4.63;2.40;;;;;28.10;94280.00;;;;7390415;19;20628;-80
2022/06/15 10:10:24;;;;;;;5.05;2.22;;;;;28.50;94276.00;;;;7393335;19;20517;-77
2022/06/15 10:13:03;;;;;;;2.95;2.50;;;;;29.10;94276.00;;;;7390671;19;20133;-77
2022/06/15 10:15:52;;;;;;;4.97;2.97;;;;;29.20;94278.00;;;;7393625;19;20193;-80
2022/06/15 10:18:41;;;;;;;5.38;2.80;;;;;28.80;94278.00;;;;7394477;19;20612;-79
2022/06/15 10:21:15;;;;;;;3.33;2.38;;;;;29.50;94279.00;;;;7387089;19;20197;-80
2022/06/15 10:24:03;;;;;;;5.95;2.72;;;;;29.30;94290.00;;;;7391176;19;20776;-81
2022/06/15 10:26:48;;;;;;;4.68;2.60;;;;;28.90;94285.00;;;;7389197;19;20156;-79
2022/06/15 10:29:28;;;;;;;8.60;3.20;;;;;29.30;94287.00;;;;7387908;19;20185;-78
2022/06/15 10:32:08;;;;;;;4.95;2.67;;;;;29.40;94282.00;;;;7387877;19;20577;-79
2022/06/15 10:35:05;;;;;;;4.03;3.00;;;;;29.30;94283.00;;;;7386202;19;20504;-79
2022/06/15 10:37:46;;;;;;;3.17;2.88;;;;;29.40;94289.00;;;;7388763;19;20156;-81
2022/06/15 10:40:48;;;;;;;4.47;3.15;;;;;29.40;94281.00;;;;7387529;19;20615;-78
2022/06/15 10:43:25;;;;;;;4.97;3.20;;;;;29.50;94282.00;;;;7385581;19;20639;-79
2022/06/15 10:46:07;;;;;;;6.93;3.33;;;;;29.60;94282.00;;;;7383536;19;20132;-80
2022/06/15 10:48:45;;;;;;;3.97;3.15;;;;;29.70;94278.00;;;;7386326;19;20159;-80
2022/06/15 10:51:42;;;;;;;5.72;3.30;;;;;29.70;94280.00;;;;7386958;19;20162;-79
2022/06/15 10:54:31;;;;;;;5.85;3.13;;;;;29.80;94270.00;;;;7388845;19;20164;-77
2022/06/15 11:03:25;;;;;;;7.35;3.13;;;;;30.50;94267.00;;;;7394983;19;20576;-79
2022/06/15 11:05:54;;;;;;;7.82;3.10;;;;;30.30;94271.00;;;;7390342;19;20595;-77
2022/06/15 11:08:44;;;;;;;6.20;3.13;;;;;30.20;94269.00;;;;7390492;19;20260;-79
2022/06/15 11:11:24;;;;;;;5.80;3.00;;;;;30.10;94269.00;;;;7391394;19;20188;-79
2022/06/15 11:14:05;;;;;;;3.13;2.83;;;;;29.90;94273.00;;;;7392952;19;20132;-78
2022/06/15 11:19:36;;;;;;;5.22;2.92;;;;;30.10;94274.00;;;;7392571;19;20136;-79
2022/06/15 11:22:18;;;;;;;11.50;3.22;;;;;30.20;94265.00;;;;7391129;19;20201;-78
2022/06/15 11:25:01;;;;;;;6.32;3.38;;;;;30.60;94270.00;;;;7390578;19;20163;-79
2022/06/15 11:27:41;;;;;;;4.55;3.20;;;;;30.50;94266.00;;;;7392713;19;20148;-79
2022/06/15 11:30:36;;;;;;;4.07;3.00;;;;;30.60;94261.00;;;;7393827;19;20144;-81
2022/06/15 11:33:35;;;;;;;4.95;3.10;;;;;30.70;94273.00;;;;7390565;19;20320;-81
2022/06/15 11:36:28;;;;;;;6.95;4.03;;;;;31.20;94270.00;;;;7388146;19;20140;-80
2022/06/15 11:39:03;;;;;;;3.70;2.88;;;;;31.10;94272.00;;;;7392952;19;20492;-79
2022/06/15 11:41:46;;;;;;;4.43;3.10;;;;;30.60;94268.00;;;;7389005;19;20196;-79
2022/06/15 11:44:29;;;;;;;4.80;3.08;;;;;30.10;94279.00;;;;7388395;19;20136;-78
2022/06/15 11:47:37;;;;;;;3.92;3.00;;;;;30.30;94275.00;;;;7390105;19;20162;-79
2022/06/15 11:50:36;;;;;;;5.97;3.22;;;;;30.10;94278.00;;;;7390536;19;20599;-80
2022/06/15 11:53:30;;;;;;;7.53;3.20;;;;;29.30;94274.00;;;;7392680;19;20147;-80
2022/06/15 11:56:11;;;;;;;5.45;3.25;;;;;30.00;94274.00;;;;7391867;19;20159;-81
2022/06/15 11:58:59;;;;;;;4.95;2.88;;;;;30.20;94272.00;;;;7393181;19;20132;-81
2022/06/15 12:02:04;;;;;;;5.20;3.30;;;;;30.40;94277.00;;;;7395747;19;20236;-81
2022/06/15 12:05:00;;;;;;;3.03;2.70;;;;;30.40;94273.00;;;;7399458;19;20131;-80
2022/06/15 12:07:43;;;;;;;5.78;3.17;;;;;30.40;94278.00;;;;7397174;19;20632;-80
2022/06/15 12:10:51;;;;;;;7.15;3.13;;;;;30.80;94272.00;;;;7394382;19;20166;-80
2022/06/15 12:13:55;;;;;;;3.72;2.83;;;;;30.90;94266.00;;;;7395178;19;20621;-79
2022/06/15 12:16:35;;;;;;;3.53;2.72;;;;;30.80;94267.00;;;;7396174;19;20136;-82
2022/06/15 12:19:36;;;;;;;7.65;3.55;;;;;30.60;94263.00;;;;7396713;19;20131;-79
2022/06/15 12:22:24;;;;;;;5.40;2.97;;;;;30.70;94270.00;;;;7395162;19;20190;-79
2022/06/15 12:25:13;;;;;;;3.40;3.10;;;;;30.90;94265.00;;;;7395612;19;20120;-78
2022/06/15 12:28:15;;;;;;;5.47;2.90;;;;;30.50;94268.00;;;;7398292;19;20584;-80
2022/06/15 12:30:50;;;;;;;3.83;3.25;;;;;30.60;94265.00;;;;7395631;19;20147;-80
2022/06/15 12:33:49;;;;;;;4.95;3.38;;;;;30.50;94271.00;;;;7394964;19;20632;-78